sensor_id;sensor_type;location;lat;lon;timestamp;pressure;altitude;pressure_sealevel;temperature;humidity
49063;BME280;34876;51.464;-0.150;2023-02-19T00:01:54;102144.55;;;18.40;46.95
49063;BME280;34876;51.464;-0.150;2023-02-19T00:04:23;102155.88;;;18.38;46.95
49063;BME280;34876;51.464;-0.150;2023-02-19T00:06:53;102156.66;;;18.41;46.85
49063;BME280;34876;51.464;-0.150;2023-02-19T00:09:22;102160.29;;;18.41;46.75
49063;BME280;34876;51.464;-0.150;2023-02-19T00:11:50;102158.27;;;18.43;46.68
49063;BME280;34876;51.464;-0.150;2023-02-19T00:14:20;102158.68;;;18.41;46.66
49063;BME280;34876;51.464;-0.150;2023-02-19T00:16:49;102161.24;;;18.43;46.58
49063;BME280;34876;51.464;-0.150;2023-02-19T00:19:20;102166.26;;;18.42;46.59
49063;BME280;34876;51.464;-0.150;2023-02-19T00:21:50;102167.70;;;18.44;46.65
49063;BME280;34876;51.464;-0.150;2023-02-19T00:24:20;102169.75;;;18.42;46.65
49063;BME280;34876;51.464;-0.150;2023-02-19T00:26:49;102175.20;;;18.43;46.62
49063;BME280;34876;51.464;-0.150;2023-02-19T00:29:20;102174.26;;;18.44;46.63
49063;BME280;34876;51.464;-0.150;2023-02-19T00:31:49;102176.49;;;18.21;46.32
49063;BME280;34876;51.464;-0.150;2023-02-19T00:34:18;102178.79;;;18.41;46.60
49063;BME280;34876;51.464;-0.150;2023-02-19T00:36:47;102187.07;;;18.43;46.62
49063;BME280;34876;51.464;-0.150;2023-02-19T00:39:16;102187.30;;;18.43;46.51
49063;BME280;34876;51.464;-0.150;2023-02-19T00:41:45;102189.28;;;18.41;46.64
49063;BME280;34876;51.464;-0.150;2023-02-19T00:44:14;102197.99;;;18.38;46.54
49063;BME280;34876;51.464;-0.150;2023-02-19T00:46:44;102206.22;;;18.41;46.60
49063;BME280;34876;51.464;-0.150;2023-02-19T00:49:17;102203.71;;;18.41;46.51
49063;BME280;34876;51.464;-0.150;2023-02-19T00:51:48;102211.92;;;18.40;46.57
49063;BME280;34876;51.464;-0.150;2023-02-19T00:54:20;102215.91;;;18.27;46.79
49063;BME280;34876;51.464;-0.150;2023-02-19T00:56:50;102218.80;;;18.39;46.52
49063;BME280;34876;51.464;-0.150;2023-02-19T00:59:20;102218.30;;;18.40;46.39
49063;BME280;34876;51.464;-0.150;2023-02-19T01:03:16;102222.78;;;18.39;46.20
49063;BME280;34876;51.464;-0.150;2023-02-19T01:05:46;102224.17;;;18.42;46.37
49063;BME280;34876;51.464;-0.150;2023-02-19T01:08:15;102222.32;;;18.40;46.38
49063;BME280;34876;51.464;-0.150;2023-02-19T01:10:43;102219.67;;;18.06;46.17
49063;BME280;34876;51.464;-0.150;2023-02-19T01:13:14;102230.82;;;18.27;46.66
49063;BME280;34876;51.464;-0.150;2023-02-19T01:15:45;102233.20;;;18.38;46.31
49063;BME280;34876;51.464;-0.150;2023-02-19T01:18:16;102234.66;;;18.28;46.66
49063;BME280;34876;51.464;-0.150;2023-02-19T01:20:46;102226.42;;;18.37;46.48
49063;BME280;34876;51.464;-0.150;2023-02-19T01:23:15;102230.54;;;18.37;46.42
49063;BME280;34876;51.464;-0.150;2023-02-19T01:25:45;102234.19;;;18.32;46.52
49063;BME280;34876;51.464;-0.150;2023-02-19T01:28:13;102238.11;;;18.37;46.39
49063;BME280;34876;51.464;-0.150;2023-02-19T01:30:43;102233.27;;;18.38;46.35
49063;BME280;34876;51.464;-0.150;2023-02-19T01:33:12;102232.38;;;18.41;46.24
49063;BME280;34876;51.464;-0.150;2023-02-19T01:35:42;102231.83;;;18.39;46.38
49063;BME280;34876;51.464;-0.150;2023-02-19T01:38:12;102233.66;;;18.36;46.40
49063;BME280;34876;51.464;-0.150;2023-02-19T01:40:42;102236.28;;;18.35;46.45
49063;BME280;34876;51.464;-0.150;2023-02-19T01:43:14;102241.00;;;18.38;46.33
49063;BME280;34876;51.464;-0.150;2023-02-19T01:45:44;102244.26;;;18.38;46.33
49063;BME280;34876;51.464;-0.150;2023-02-19T01:48:17;102253.15;;;18.38;46.27
49063;BME280;34876;51.464;-0.150;2023-02-19T01:50:50;102258.09;;;18.38;46.27
49063;BME280;34876;51.464;-0.150;2023-02-19T01:53:22;102260.54;;;18.38;46.26
49063;BME280;34876;51.464;-0.150;2023-02-19T01:55:55;102260.94;;;18.38;46.25
49063;BME280;34876;51.464;-0.150;2023-02-19T01:58:29;102255.30;;;18.37;46.25
49063;BME280;34876;51.464;-0.150;2023-02-19T02:01:02;102249.35;;;18.38;46.25
49063;BME280;34876;51.464;-0.150;2023-02-19T02:03:33;102248.31;;;18.33;46.37
49063;BME280;34876;51.464;-0.150;2023-02-19T02:06:08;102244.41;;;18.35;46.33
49063;BME280;34876;51.464;-0.150;2023-02-19T02:08:40;102242.66;;;18.35;46.33
49063;BME280;34876;51.464;-0.150;2023-02-19T02:11:11;102242.37;;;18.34;46.28
49063;BME280;34876;51.464;-0.150;2023-02-19T02:13:40;102241.15;;;18.35;46.21
49063;BME280;34876;51.464;-0.150;2023-02-19T02:16:19;102245.98;;;18.35;46.13
49063;BME280;34876;51.464;-0.150;2023-02-19T02:18:57;102251.89;;;18.34;46.14
49063;BME280;34876;51.464;-0.150;2023-02-19T02:21:35;102253.65;;;18.34;46.06
49063;BME280;34876;51.464;-0.150;2023-02-19T02:24:36;102265.12;;;18.33;46.07
49063;BME280;34876;51.464;-0.150;2023-02-19T02:27:24;102265.11;;;18.34;46.04
49063;BME280;34876;51.464;-0.150;2023-02-19T02:30:40;102262.33;;;18.33;46.01
49063;BME280;34876;51.464;-0.150;2023-02-19T02:33:17;102265.73;;;18.32;46.03
49063;BME280;34876;51.464;-0.150;2023-02-19T02:35:51;102272.38;;;18.32;45.98
49063;BME280;34876;51.464;-0.150;2023-02-19T02:38:26;102274.75;;;18.33;45.90
49063;BME280;34876;51.464;-0.150;2023-02-19T02:40:56;102279.98;;;18.33;45.87
49063;BME280;34876;51.464;-0.150;2023-02-19T02:43:25;102281.15;;;18.33;45.82
49063;BME280;34876;51.464;-0.150;2023-02-19T02:45:54;102282.32;;;18.33;45.75
49063;BME280;34876;51.464;-0.150;2023-02-19T02:48:30;102280.27;;;18.34;45.66
49063;BME280;34876;51.464;-0.150;2023-02-19T02:51:07;102279.96;;;18.33;45.69
49063;BME280;34876;51.464;-0.150;2023-02-19T02:53:42;102279.11;;;18.32;45.71
49063;BME280;34876;51.464;-0.150;2023-02-19T02:56:15;102278.95;;;18.33;45.69
49063;BME280;34876;51.464;-0.150;2023-02-19T02:58:48;102279.88;;;18.32;45.70
49063;BME280;34876;51.464;-0.150;2023-02-19T03:01:22;102290.47;;;18.34;45.62
49063;BME280;34876;51.464;-0.150;2023-02-19T03:03:58;102295.04;;;18.33;45.65
49063;BME280;34876;51.464;-0.150;2023-02-19T03:06:31;102297.04;;;18.33;45.58
49063;BME280;34876;51.464;-0.150;2023-02-19T03:09:08;102295.09;;;18.33;45.67
49063;BME280;34876;51.464;-0.150;2023-02-19T03:11:41;102298.10;;;18.35;45.51
49063;BME280;34876;51.464;-0.150;2023-02-19T03:14:15;102298.65;;;18.35;45.54
49063;BME280;34876;51.464;-0.150;2023-02-19T03:16:47;102307.41;;;18.33;45.55
49063;BME280;34876;51.464;-0.150;2023-02-19T03:19:19;102302.41;;;18.35;45.47
49063;BME280;34876;51.464;-0.150;2023-02-19T03:21:52;102305.92;;;18.34;45.59
49063;BME280;34876;51.464;-0.150;2023-02-19T03:24:26;102311.05;;;18.37;45.43
49063;BME280;34876;51.464;-0.150;2023-02-19T03:26:58;102314.98;;;18.36;45.41
49063;BME280;34876;51.464;-0.150;2023-02-19T03:29:35;102316.39;;;18.38;45.37
49063;BME280;34876;51.464;-0.150;2023-02-19T03:32:08;102319.44;;;18.37;45.42
49063;BME280;34876;51.464;-0.150;2023-02-19T03:34:43;102313.54;;;18.34;45.50
49063;BME280;34876;51.464;-0.150;2023-02-19T03:37:20;102312.06;;;18.31;45.46
49063;BME280;34876;51.464;-0.150;2023-02-19T03:39:53;102310.37;;;18.07;45.95
49063;BME280;34876;51.464;-0.150;2023-02-19T03:42:34;102315.76;;;18.33;45.57
49063;BME280;34876;51.464;-0.150;2023-02-19T03:45:13;102316.04;;;18.27;45.67
49063;BME280;34876;51.464;-0.150;2023-02-19T03:47:51;102317.58;;;18.36;45.46
49063;BME280;34876;51.464;-0.150;2023-02-19T03:50:26;102325.84;;;18.35;45.39
49063;BME280;34876;51.464;-0.150;2023-02-19T03:53:02;102330.78;;;18.32;45.41
49063;BME280;34876;51.464;-0.150;2023-02-19T03:55:41;102331.76;;;18.35;45.32
49063;BME280;34876;51.464;-0.150;2023-02-19T03:58:15;102344.92;;;18.33;45.32
49063;BME280;34876;51.464;-0.150;2023-02-19T04:00:52;102348.31;;;18.34;45.24
49063;BME280;34876;51.464;-0.150;2023-02-19T04:03:28;102348.18;;;18.35;45.30
49063;BME280;34876;51.464;-0.150;2023-02-19T04:06:01;102352.60;;;18.35;45.13
49063;BME280;34876;51.464;-0.150;2023-02-19T04:08:33;102356.54;;;18.34;45.16
49063;BME280;34876;51.464;-0.150;2023-02-19T04:11:03;102359.64;;;18.34;45.14
49063;BME280;34876;51.464;-0.150;2023-02-19T04:13:36;102359.71;;;18.35;45.03
49063;BME280;34876;51.464;-0.150;2023-02-19T04:16:12;102364.85;;;18.36;45.02
49063;BME280;34876;51.464;-0.150;2023-02-19T04:18:48;102369.95;;;18.35;44.99
49063;BME280;34876;51.464;-0.150;2023-02-19T04:21:18;102367.87;;;18.36;44.95
49063;BME280;34876;51.464;-0.150;2023-02-19T04:23:48;102371.40;;;18.36;44.93
49063;BME280;34876;51.464;-0.150;2023-02-19T04:26:19;102373.72;;;18.35;44.85
49063;BME280;34876;51.464;-0.150;2023-02-19T04:28:50;102383.25;;;18.35;44.85
49063;BME280;34876;51.464;-0.150;2023-02-19T04:31:19;102383.90;;;18.35;44.81
49063;BME280;34876;51.464;-0.150;2023-02-19T04:33:48;102391.54;;;18.36;44.79
49063;BME280;34876;51.464;-0.150;2023-02-19T04:36:17;102399.72;;;18.36;44.74
49063;BME280;34876;51.464;-0.150;2023-02-19T04:38:47;102404.65;;;18.36;44.73
49063;BME280;34876;51.464;-0.150;2023-02-19T04:41:16;102402.33;;;18.35;44.76
49063;BME280;34876;51.464;-0.150;2023-02-19T04:43:44;102399.15;;;18.33;44.76
49063;BME280;34876;51.464;-0.150;2023-02-19T04:46:14;102404.61;;;18.34;44.75
49063;BME280;34876;51.464;-0.150;2023-02-19T04:48:42;102409.38;;;18.36;44.76
49063;BME280;34876;51.464;-0.150;2023-02-19T04:51:11;102415.51;;;18.36;44.70
49063;BME280;34876;51.464;-0.150;2023-02-19T04:53:41;102415.12;;;18.36;44.66
49063;BME280;34876;51.464;-0.150;2023-02-19T04:56:11;102412.17;;;18.39;44.67
49063;BME280;34876;51.464;-0.150;2023-02-19T04:58:41;102423.24;;;18.36;44.73
49063;BME280;34876;51.464;-0.150;2023-02-19T05:01:11;102429.76;;;18.36;44.67
49063;BME280;34876;51.464;-0.150;2023-02-19T05:03:40;102429.18;;;18.36;44.61
49063;BME280;34876;51.464;-0.150;2023-02-19T05:06:11;102439.19;;;18.37;44.56
49063;BME280;34876;51.464;-0.150;2023-02-19T05:08:41;102445.72;;;18.36;44.56
49063;BME280;34876;51.464;-0.150;2023-02-19T05:11:11;102445.96;;;18.31;44.62
49063;BME280;34876;51.464;-0.150;2023-02-19T05:13:40;102445.53;;;18.36;44.50
49063;BME280;34876;51.464;-0.150;2023-02-19T05:16:13;102444.39;;;18.35;44.49
49063;BME280;34876;51.464;-0.150;2023-02-19T05:18:45;102439.23;;;18.36;44.47
49063;BME280;34876;51.464;-0.150;2023-02-19T05:21:15;102439.84;;;18.34;44.51
49063;BME280;34876;51.464;-0.150;2023-02-19T05:23:44;102441.84;;;18.34;44.44
49063;BME280;34876;51.464;-0.150;2023-02-19T05:26:15;102444.70;;;18.25;44.58
49063;BME280;34876;51.464;-0.150;2023-02-19T05:28:46;102444.32;;;18.32;44.47
49063;BME280;34876;51.464;-0.150;2023-02-19T05:31:15;102447.40;;;18.32;44.52
49063;BME280;34876;51.464;-0.150;2023-02-19T05:33:45;102450.41;;;18.32;44.47
49063;BME280;34876;51.464;-0.150;2023-02-19T05:36:14;102454.25;;;18.31;44.45
49063;BME280;34876;51.464;-0.150;2023-02-19T05:38:43;102454.96;;;18.36;44.33
49063;BME280;34876;51.464;-0.150;2023-02-19T05:41:14;102458.71;;;18.34;44.40
49063;BME280;34876;51.464;-0.150;2023-02-19T05:43:45;102458.95;;;18.33;44.40
49063;BME280;34876;51.464;-0.150;2023-02-19T05:46:16;102459.39;;;18.36;44.32
49063;BME280;34876;51.464;-0.150;2023-02-19T05:48:46;102460.68;;;18.32;44.39
49063;BME280;34876;51.464;-0.150;2023-02-19T05:51:17;102462.74;;;18.34;44.24
49063;BME280;34876;51.464;-0.150;2023-02-19T05:53:47;102461.18;;;18.34;44.26
49063;BME280;34876;51.464;-0.150;2023-02-19T05:56:23;102457.19;;;18.34;44.31
49063;BME280;34876;51.464;-0.150;2023-02-19T05:58:56;102449.79;;;18.32;44.42
49063;BME280;34876;51.464;-0.150;2023-02-19T06:01:27;102447.52;;;18.24;44.59
49063;BME280;34876;51.464;-0.150;2023-02-19T06:03:57;102446.93;;;18.29;44.46
49063;BME280;34876;51.464;-0.150;2023-02-19T06:06:26;102450.19;;;18.06;44.92
49063;BME280;34876;51.464;-0.150;2023-02-19T06:08:55;102459.33;;;17.76;41.45
49063;BME280;34876;51.464;-0.150;2023-02-19T06:11:24;102466.18;;;18.21;44.57
49063;BME280;34876;51.464;-0.150;2023-02-19T06:13:53;102467.73;;;18.28;44.41
49063;BME280;34876;51.464;-0.150;2023-02-19T06:16:22;102470.85;;;18.29;44.33
49063;BME280;34876;51.464;-0.150;2023-02-19T06:18:51;102474.93;;;18.29;44.27
49063;BME280;34876;51.464;-0.150;2023-02-19T06:21:20;102472.73;;;18.29;44.28
49063;BME280;34876;51.464;-0.150;2023-02-19T06:23:49;102475.98;;;18.29;44.22
49063;BME280;34876;51.464;-0.150;2023-02-19T06:26:20;102474.67;;;18.28;44.19
49063;BME280;34876;51.464;-0.150;2023-02-19T06:28:51;102477.92;;;18.30;44.19
49063;BME280;34876;51.464;-0.150;2023-02-19T06:31:21;102480.08;;;18.29;44.17
49063;BME280;34876;51.464;-0.150;2023-02-19T06:33:50;102481.01;;;18.28;44.09
49063;BME280;34876;51.464;-0.150;2023-02-19T06:36:20;102485.26;;;18.28;44.12
49063;BME280;34876;51.464;-0.150;2023-02-19T06:38:50;102489.46;;;18.28;44.03
49063;BME280;34876;51.464;-0.150;2023-02-19T06:41:19;102493.01;;;18.27;44.01
49063;BME280;34876;51.464;-0.150;2023-02-19T06:43:48;102497.21;;;18.27;43.99
49063;BME280;34876;51.464;-0.150;2023-02-19T06:46:17;102503.28;;;18.28;43.94
49063;BME280;34876;51.464;-0.150;2023-02-19T06:48:47;102508.44;;;18.28;43.86
49063;BME280;34876;51.464;-0.150;2023-02-19T06:51:17;102515.59;;;18.26;43.90
49063;BME280;34876;51.464;-0.150;2023-02-19T06:53:46;102518.95;;;18.27;43.84
49063;BME280;34876;51.464;-0.150;2023-02-19T06:56:22;102512.46;;;18.26;43.83
49063;BME280;34876;51.464;-0.150;2023-02-19T06:58:52;102506.83;;;18.25;43.77
49063;BME280;34876;51.464;-0.150;2023-02-19T07:01:22;102510.03;;;18.25;43.85
49063;BME280;34876;51.464;-0.150;2023-02-19T07:03:52;102515.02;;;18.25;43.84
49063;BME280;34876;51.464;-0.150;2023-02-19T07:06:22;102518.49;;;18.25;43.73
49063;BME280;34876;51.464;-0.150;2023-02-19T07:08:53;102525.72;;;18.25;43.78
49063;BME280;34876;51.464;-0.150;2023-02-19T07:11:23;102525.20;;;18.25;43.77
49063;BME280;34876;51.464;-0.150;2023-02-19T07:13:54;102529.85;;;18.25;43.80
49063;BME280;34876;51.464;-0.150;2023-02-19T07:16:23;102537.81;;;18.25;43.71
49063;BME280;34876;51.464;-0.150;2023-02-19T07:18:55;102554.36;;;18.26;43.65
49063;BME280;34876;51.464;-0.150;2023-02-19T07:21:25;102553.41;;;18.26;43.54
49063;BME280;34876;51.464;-0.150;2023-02-19T07:23:55;102550.74;;;18.25;43.64
49063;BME280;34876;51.464;-0.150;2023-02-19T07:26:24;102549.84;;;18.25;43.43
49063;BME280;34876;51.464;-0.150;2023-02-19T07:28:53;102556.69;;;18.27;43.53
49063;BME280;34876;51.464;-0.150;2023-02-19T07:31:23;102565.65;;;18.27;43.45
49063;BME280;34876;51.464;-0.150;2023-02-19T07:33:52;102573.47;;;18.26;43.39
49063;BME280;34876;51.464;-0.150;2023-02-19T07:36:22;102571.80;;;18.25;43.47
49063;BME280;34876;51.464;-0.150;2023-02-19T07:38:53;102575.91;;;18.26;43.40
49063;BME280;34876;51.464;-0.150;2023-02-19T07:41:23;102573.79;;;18.26;43.37
49063;BME280;34876;51.464;-0.150;2023-02-19T07:43:52;102582.16;;;18.27;43.37
49063;BME280;34876;51.464;-0.150;2023-02-19T07:46:22;102585.88;;;18.28;43.23
49063;BME280;34876;51.464;-0.150;2023-02-19T07:48:51;102595.87;;;18.30;43.22
49063;BME280;34876;51.464;-0.150;2023-02-19T07:51:20;102598.87;;;18.31;43.16
49063;BME280;34876;51.464;-0.150;2023-02-19T07:53:50;102595.38;;;18.31;43.17
49063;BME280;34876;51.464;-0.150;2023-02-19T07:56:19;102593.06;;;18.32;43.11
49063;BME280;34876;51.464;-0.150;2023-02-19T07:58:48;102594.71;;;18.31;43.17
49063;BME280;34876;51.464;-0.150;2023-02-19T08:01:19;102604.18;;;18.31;43.25
49063;BME280;34876;51.464;-0.150;2023-02-19T08:03:48;102603.85;;;18.31;43.16
49063;BME280;34876;51.464;-0.150;2023-02-19T08:06:17;102609.88;;;18.32;43.29
49063;BME280;34876;51.464;-0.150;2023-02-19T08:08:46;102615.63;;;18.35;43.19
49063;BME280;34876;51.464;-0.150;2023-02-19T08:11:15;102615.96;;;18.33;43.20
49063;BME280;34876;51.464;-0.150;2023-02-19T08:13:46;102613.55;;;18.35;43.19
49063;BME280;34876;51.464;-0.150;2023-02-19T08:16:17;102615.97;;;18.35;43.07
49063;BME280;34876;51.464;-0.150;2023-02-19T08:18:47;102620.13;;;18.30;43.26
49063;BME280;34876;51.464;-0.150;2023-02-19T08:21:17;102630.41;;;18.33;43.12
49063;BME280;34876;51.464;-0.150;2023-02-19T08:23:46;102637.59;;;18.35;43.05
49063;BME280;34876;51.464;-0.150;2023-02-19T08:26:15;102650.15;;;18.30;43.12
49063;BME280;34876;51.464;-0.150;2023-02-19T08:28:43;102669.48;;;18.36;43.09
49063;BME280;34876;51.464;-0.150;2023-02-19T08:31:13;102675.52;;;18.36;43.03
49063;BME280;34876;51.464;-0.150;2023-02-19T08:33:42;102684.87;;;18.38;42.96
49063;BME280;34876;51.464;-0.150;2023-02-19T08:36:12;102690.20;;;18.38;42.93
49063;BME280;34876;51.464;-0.150;2023-02-19T08:38:41;102681.01;;;18.38;42.87
49063;BME280;34876;51.464;-0.150;2023-02-19T08:41:12;102672.37;;;18.41;42.83
49063;BME280;34876;51.464;-0.150;2023-02-19T08:43:41;102664.48;;;18.41;42.83
49063;BME280;34876;51.464;-0.150;2023-02-19T08:46:11;102685.85;;;18.42;42.72
49063;BME280;34876;51.464;-0.150;2023-02-19T08:48:41;102692.56;;;18.45;42.68
49063;BME280;34876;51.464;-0.150;2023-02-19T08:51:10;102683.46;;;18.43;42.70
49063;BME280;34876;51.464;-0.150;2023-02-19T08:53:40;102676.90;;;18.48;42.53
49063;BME280;34876;51.464;-0.150;2023-02-19T08:56:11;102673.20;;;18.46;42.69
49063;BME280;34876;51.464;-0.150;2023-02-19T08:58:41;102651.27;;;18.45;42.64
49063;BME280;34876;51.464;-0.150;2023-02-19T09:01:12;102640.62;;;18.32;42.58
49063;BME280;34876;51.464;-0.150;2023-02-19T09:03:42;102643.09;;;18.47;42.56
49063;BME280;34876;51.464;-0.150;2023-02-19T09:06:14;102650.63;;;18.59;42.26
49063;BME280;34876;51.464;-0.150;2023-02-19T09:08:44;102669.90;;;18.17;42.94
49063;BME280;34876;51.464;-0.150;2023-02-19T09:11:14;102674.62;;;18.50;42.46
49063;BME280;34876;51.464;-0.150;2023-02-19T09:13:43;102672.66;;;18.04;43.29
49063;BME280;34876;51.464;-0.150;2023-02-19T09:16:12;102671.46;;;18.74;41.83
49063;BME280;34876;51.464;-0.150;2023-02-19T09:18:41;102684.38;;;19.00;41.21
49063;BME280;34876;51.464;-0.150;2023-02-19T09:21:10;102688.38;;;19.01;41.20
49063;BME280;34876;51.464;-0.150;2023-02-19T09:23:40;102686.73;;;18.90;41.39
49063;BME280;34876;51.464;-0.150;2023-02-19T09:26:08;102687.75;;;18.81;38.75
49063;BME280;34876;51.464;-0.150;2023-02-19T09:28:38;102687.69;;;18.77;41.57
49063;BME280;34876;51.464;-0.150;2023-02-19T09:31:10;102681.50;;;18.91;41.36
49063;BME280;34876;51.464;-0.150;2023-02-19T09:33:41;102687.83;;;18.70;41.66
49063;BME280;34876;51.464;-0.150;2023-02-19T09:36:15;102697.79;;;18.85;41.39
49063;BME280;34876;51.464;-0.150;2023-02-19T09:38:44;102718.32;;;18.54;41.69
49063;BME280;34876;51.464;-0.150;2023-02-19T09:41:28;102734.98;;;18.21;42.74
49063;BME280;34876;51.464;-0.150;2023-02-19T09:43:59;102721.18;;;18.69;41.79
49063;BME280;34876;51.464;-0.150;2023-02-19T09:46:31;102723.39;;;18.73;40.39
49063;BME280;34876;51.464;-0.150;2023-02-19T09:49:04;102735.31;;;17.99;37.23
49063;BME280;34876;51.464;-0.150;2023-02-19T09:51:36;102744.16;;;18.19;42.78
49063;BME280;34876;51.464;-0.150;2023-02-19T09:54:09;102754.32;;;18.80;41.54
49063;BME280;34876;51.464;-0.150;2023-02-19T09:56:43;102762.33;;;18.80;41.47
49063;BME280;34876;51.464;-0.150;2023-02-19T09:59:18;102763.48;;;18.59;36.58
49063;BME280;34876;51.464;-0.150;2023-02-19T10:01:54;102765.01;;;18.18;38.99
49063;BME280;34876;51.464;-0.150;2023-02-19T10:04:25;102758.41;;;18.73;40.40
49063;BME280;34876;51.464;-0.150;2023-02-19T10:06:57;102765.87;;;18.22;42.44
49063;BME280;34876;51.464;-0.150;2023-02-19T10:09:29;102758.51;;;18.93;40.94
49063;BME280;34876;51.464;-0.150;2023-02-19T10:11:58;102755.09;;;19.00;40.83
49063;BME280;34876;51.464;-0.150;2023-02-19T10:14:34;102751.30;;;18.99;40.74
49063;BME280;34876;51.464;-0.150;2023-02-19T10:17:05;102746.61;;;19.11;40.59
49063;BME280;34876;51.464;-0.150;2023-02-19T10:19:35;102740.08;;;18.86;41.12
49063;BME280;34876;51.464;-0.150;2023-02-19T10:22:04;102733.91;;;19.09;40.68
49063;BME280;34876;51.464;-0.150;2023-02-19T10:24:34;102735.23;;;19.17;40.59
49063;BME280;34876;51.464;-0.150;2023-02-19T10:27:04;102750.74;;;18.88;40.93
49063;BME280;34876;51.464;-0.150;2023-02-19T10:29:34;102757.43;;;18.96;40.95
49063;BME280;34876;51.464;-0.150;2023-02-19T10:32:14;102751.53;;;19.11;37.63
49063;BME280;34876;51.464;-0.150;2023-02-19T10:34:44;102753.24;;;19.06;40.72
49063;BME280;34876;51.464;-0.150;2023-02-19T10:37:15;102754.07;;;18.96;41.06
49063;BME280;34876;51.464;-0.150;2023-02-19T10:39:47;102752.95;;;18.78;41.27
49063;BME280;34876;51.464;-0.150;2023-02-19T10:42:19;102753.22;;;18.66;41.60
49063;BME280;34876;51.464;-0.150;2023-02-19T10:44:53;102756.14;;;18.88;40.86
49063;BME280;34876;51.464;-0.150;2023-02-19T10:47:24;102763.11;;;19.06;40.80
49063;BME280;34876;51.464;-0.150;2023-02-19T10:49:56;102764.91;;;18.91;41.03
49063;BME280;34876;51.464;-0.150;2023-02-19T10:52:28;102765.76;;;18.95;41.08
49063;BME280;34876;51.464;-0.150;2023-02-19T10:55:15;102765.14;;;19.04;41.10
49063;BME280;34876;51.464;-0.150;2023-02-19T10:57:44;102764.04;;;18.94;41.20
49063;BME280;34876;51.464;-0.150;2023-02-19T11:00:23;102770.39;;;18.34;41.65
49063;BME280;34876;51.464;-0.150;2023-02-19T11:03:13;102775.01;;;18.55;42.35
49063;BME280;34876;51.464;-0.150;2023-02-19T11:05:52;102772.11;;;18.83;41.78
49063;BME280;34876;51.464;-0.150;2023-02-19T11:08:23;102772.95;;;18.79;41.85
49063;BME280;34876;51.464;-0.150;2023-02-19T11:10:52;102776.44;;;18.85;41.55
49063;BME280;34876;51.464;-0.150;2023-02-19T11:13:25;102782.14;;;18.79;41.69
49063;BME280;34876;51.464;-0.150;2023-02-19T11:15:57;102781.92;;;18.88;41.43
49063;BME280;34876;51.464;-0.150;2023-02-19T11:18:27;102784.38;;;18.84;41.50
49063;BME280;34876;51.464;-0.150;2023-02-19T11:21:00;102788.86;;;18.47;42.31
49063;BME280;34876;51.464;-0.150;2023-02-19T11:23:31;102788.28;;;18.71;41.84
49063;BME280;34876;51.464;-0.150;2023-02-19T11:26:03;102787.71;;;18.76;41.32
49063;BME280;34876;51.464;-0.150;2023-02-19T11:28:35;102782.94;;;18.80;41.62
49063;BME280;34876;51.464;-0.150;2023-02-19T11:31:22;102780.17;;;18.79;41.64
49063;BME280;34876;51.464;-0.150;2023-02-19T11:33:55;102781.70;;;18.70;41.66
49063;BME280;34876;51.464;-0.150;2023-02-19T11:36:28;102792.92;;;18.39;42.32
49063;BME280;34876;51.464;-0.150;2023-02-19T11:39:01;102797.01;;;18.06;40.55
49063;BME280;34876;51.464;-0.150;2023-02-19T11:42:42;102803.98;;;18.61;38.12
49063;BME280;34876;51.464;-0.150;2023-02-19T11:45:26;102795.86;;;18.66;41.79
49063;BME280;34876;51.464;-0.150;2023-02-19T11:48:09;102784.87;;;18.68;41.70
49063;BME280;34876;51.464;-0.150;2023-02-19T11:50:50;102784.37;;;18.68;41.78
49063;BME280;34876;51.464;-0.150;2023-02-19T11:53:24;102780.59;;;18.49;36.66
49063;BME280;34876;51.464;-0.150;2023-02-19T11:56:08;102775.47;;;18.66;41.80
49063;BME280;34876;51.464;-0.150;2023-02-19T11:58:50;102769.61;;;18.76;41.61
49063;BME280;34876;51.464;-0.150;2023-02-19T12:01:35;102762.17;;;18.80;41.70
49063;BME280;34876;51.464;-0.150;2023-02-19T12:04:43;102753.45;;;18.83;41.37
49063;BME280;34876;51.464;-0.150;2023-02-19T12:07:27;102744.70;;;18.77;41.71
49063;BME280;34876;51.464;-0.150;2023-02-19T12:10:10;102750.29;;;18.55;39.34
49063;BME280;34876;51.464;-0.150;2023-02-19T12:12:54;102743.90;;;18.57;42.26
49063;BME280;34876;51.464;-0.150;2023-02-19T12:15:43;102745.70;;;18.57;42.53
49063;BME280;34876;51.464;-0.150;2023-02-19T12:18:26;102747.46;;;18.61;41.79
49063;BME280;34876;51.464;-0.150;2023-02-19T12:21:10;102744.59;;;18.66;41.94
49063;BME280;34876;51.464;-0.150;2023-02-19T12:24:03;102742.39;;;18.41;42.31
49063;BME280;34876;51.464;-0.150;2023-02-19T12:26:41;102738.54;;;18.12;42.99
49063;BME280;34876;51.464;-0.150;2023-02-19T12:29:23;102731.40;;;18.58;42.02
49063;BME280;34876;51.464;-0.150;2023-02-19T12:32:06;102731.70;;;18.63;42.11
49063;BME280;34876;51.464;-0.150;2023-02-19T12:34:58;102724.72;;;18.67;41.92
49063;BME280;34876;51.464;-0.150;2023-02-19T12:37:35;102725.95;;;18.24;35.19
49063;BME280;34876;51.464;-0.150;2023-02-19T12:40:20;102722.63;;;18.57;42.18
49063;BME280;34876;51.464;-0.150;2023-02-19T12:43:00;102723.41;;;18.36;43.14
49063;BME280;34876;51.464;-0.150;2023-02-19T12:45:36;102732.01;;;18.58;42.24
49063;BME280;34876;51.464;-0.150;2023-02-19T12:48:13;102726.90;;;18.65;42.13
49063;BME280;34876;51.464;-0.150;2023-02-19T12:50:49;102730.07;;;18.70;41.81
49063;BME280;34876;51.464;-0.150;2023-02-19T12:53:32;102734.63;;;18.74;41.98
49063;BME280;34876;51.464;-0.150;2023-02-19T12:56:09;102730.92;;;18.63;42.45
49063;BME280;34876;51.464;-0.150;2023-02-19T12:58:43;102730.74;;;18.64;42.35
49063;BME280;34876;51.464;-0.150;2023-02-19T13:01:19;102730.05;;;18.65;42.30
49063;BME280;34876;51.464;-0.150;2023-02-19T13:03:53;102726.47;;;18.30;42.52
49063;BME280;34876;51.464;-0.150;2023-02-19T13:06:34;102731.22;;;18.24;43.15
49063;BME280;34876;51.464;-0.150;2023-02-19T13:09:10;102727.18;;;18.58;42.38
49063;BME280;34876;51.464;-0.150;2023-02-19T13:11:44;102726.15;;;18.61;42.35